createdAt,value
2019-03-21T00:02:24.473Z,6.40
2019-03-21T00:04:53.816Z,6.40
2019-03-21T00:07:23.080Z,6.40
2019-03-21T00:10:12.210Z,6.30
2019-03-21T00:12:41.480Z,6.30
2019-03-21T00:15:13.829Z,6.30
2019-03-21T00:17:45.756Z,6.30
2019-03-21T00:20:17.238Z,6.30
2019-03-21T00:22:46.577Z,6.20
2019-03-21T00:25:18.929Z,6.20
2019-03-21T00:27:48.199Z,6.20
2019-03-21T00:30:19.789Z,6.20
2019-03-21T00:32:49.124Z,6.10
2019-03-21T00:35:18.461Z,6.10
2019-03-21T00:37:49.333Z,6.10
2019-03-21T00:40:27.240Z,6.00
2019-03-21T00:42:57.534Z,6.00
2019-03-21T00:45:26.823Z,6.00
2019-03-21T00:47:56.093Z,6.00
2019-03-21T00:50:27.707Z,5.90
2019-03-21T00:52:57.137Z,5.90
2019-03-21T00:55:31.995Z,5.90
2019-03-21T00:58:01.271Z,5.90
2019-03-21T01:00:39.901Z,5.80
2019-03-21T01:03:10.514Z,5.80
2019-03-21T01:05:39.781Z,5.80
2019-03-21T01:08:09.050Z,5.70
2019-03-21T01:10:38.330Z,5.70
2019-03-21T01:13:07.598Z,5.70
2019-03-21T01:15:36.868Z,5.70
2019-03-21T01:18:06.208Z,5.60
2019-03-21T01:20:35.476Z,5.60
2019-03-21T01:23:04.740Z,5.60
2019-03-21T01:25:43.333Z,5.60
2019-03-21T01:28:13.545Z,5.50
2019-03-21T01:30:43.784Z,5.50
2019-03-21T01:33:13.043Z,5.50
2019-03-21T01:35:42.559Z,5.40
2019-03-21T01:38:11.819Z,5.40
2019-03-21T01:40:44.384Z,5.40
2019-03-21T01:43:13.647Z,5.40
2019-03-21T01:45:42.912Z,5.30
2019-03-21T01:48:12.185Z,5.30
2019-03-21T01:50:42.692Z,5.30
2019-03-21T01:53:11.973Z,5.30
2019-03-21T01:55:41.239Z,5.20
2019-03-21T01:58:10.514Z,5.20
2019-03-21T02:00:41.980Z,5.20
2019-03-21T02:03:11.260Z,5.10
2019-03-21T02:05:41.003Z,5.10
2019-03-21T02:08:10.275Z,5.00
2019-03-21T02:10:39.576Z,5.00
2019-03-21T02:13:08.854Z,5.00
2019-03-21T02:15:38.117Z,5.00
2019-03-21T02:18:07.384Z,4.90
2019-03-21T02:20:36.647Z,4.90
2019-03-21T02:23:05.922Z,4.90
2019-03-21T02:25:36.323Z,4.90
2019-03-21T02:28:06.064Z,4.80
2019-03-21T02:30:38.150Z,4.80
2019-03-21T02:33:16.199Z,4.80
2019-03-21T02:35:45.701Z,4.70
2019-03-21T02:38:15.946Z,4.70
2019-03-21T02:40:46.056Z,4.70
2019-03-21T02:43:15.322Z,4.70
2019-03-21T02:45:44.589Z,4.70
2019-03-21T02:48:13.940Z,4.60
2019-03-21T02:50:45.785Z,4.60
2019-03-21T02:53:15.074Z,4.60
2019-03-21T02:55:44.343Z,4.60
2019-03-21T02:58:13.622Z,4.60
2019-03-21T03:00:45.105Z,4.60
2019-03-21T03:03:14.446Z,4.50
2019-03-21T03:05:43.722Z,4.50
2019-03-21T03:08:13.001Z,4.50
2019-03-21T03:10:51.238Z,4.50
2019-03-21T03:13:20.493Z,4.50
2019-03-21T03:15:49.762Z,4.40
2019-03-21T03:18:21.058Z,4.40
2019-03-21T03:20:50.346Z,4.40
2019-03-21T03:23:19.672Z,4.40
2019-03-21T03:25:50.813Z,4.40
2019-03-21T03:28:25.512Z,4.40
2019-03-21T03:30:57.035Z,4.40
2019-03-21T03:33:26.664Z,4.40
2019-03-21T03:35:55.939Z,4.40
2019-03-21T03:38:25.212Z,4.40
2019-03-21T03:41:04.592Z,4.40
2019-03-21T03:43:33.849Z,4.40
2019-03-21T03:46:03.129Z,4.40
2019-03-21T03:48:32.405Z,4.40
2019-03-21T03:51:01.691Z,4.40
2019-03-21T03:53:30.953Z,4.40
2019-03-21T03:56:00.234Z,4.40
2019-03-21T03:58:31.745Z,4.40
2019-03-21T04:01:01.029Z,4.40
2019-03-21T04:03:30.289Z,4.40
2019-03-21T04:05:59.568Z,4.40
2019-03-21T04:08:28.827Z,4.30
2019-03-21T04:10:58.587Z,4.40
2019-03-21T04:13:27.844Z,4.30
2019-03-21T04:15:57.117Z,4.30
2019-03-21T04:18:26.391Z,4.30
2019-03-21T04:21:15.799Z,4.30
2019-03-21T04:23:45.078Z,4.30
2019-03-21T04:26:23.086Z,4.30
2019-03-21T04:28:52.360Z,4.20
2019-03-21T04:31:21.644Z,4.20
2019-03-21T04:33:53.864Z,4.20
2019-03-21T04:36:23.145Z,4.10
2019-03-21T04:38:52.426Z,4.10
2019-03-21T04:41:21.701Z,4.10
2019-03-21T04:43:50.976Z,4.00
2019-03-21T04:46:20.254Z,4.00
2019-03-21T04:48:49.528Z,4.00
2019-03-21T04:51:18.802Z,4.00
2019-03-21T04:53:48.068Z,4.00
2019-03-21T04:56:17.351Z,4.00
2019-03-21T04:58:46.616Z,3.90
2019-03-21T05:01:16.012Z,3.90
2019-03-21T05:03:45.382Z,3.90
2019-03-21T05:06:15.715Z,3.90
2019-03-21T05:08:44.985Z,3.90
2019-03-21T05:11:14.534Z,3.90
2019-03-21T05:13:43.805Z,3.80
2019-03-21T05:16:14.879Z,3.80
2019-03-21T05:18:51.233Z,3.80
2019-03-21T05:21:22.852Z,3.80
2019-03-21T05:23:52.121Z,3.80
2019-03-21T05:26:21.401Z,3.80
2019-03-21T05:28:50.678Z,3.80
2019-03-21T05:31:29.217Z,3.80
2019-03-21T05:33:58.493Z,3.80
2019-03-21T05:36:27.767Z,3.80
2019-03-21T05:38:57.037Z,3.80
2019-03-21T05:41:26.305Z,3.80
2019-03-21T05:43:58.672Z,3.80
2019-03-21T05:46:28.272Z,3.80
2019-03-21T05:48:57.559Z,3.80
2019-03-21T05:51:26.827Z,3.80
2019-03-21T05:53:56.105Z,3.80
2019-03-21T05:56:25.388Z,3.80
2019-03-21T05:58:54.661Z,3.70
2019-03-21T06:01:23.928Z,3.80
2019-03-21T06:03:53.368Z,3.70
2019-03-21T06:06:49.654Z,3.70
2019-03-21T06:09:22.048Z,3.80
2019-03-21T06:11:56.829Z,3.70
2019-03-21T06:14:26.452Z,3.80
2019-03-21T06:16:55.729Z,3.80
2019-03-21T06:19:28.116Z,3.80
2019-03-21T06:22:18.445Z,3.80
2019-03-21T06:24:56.837Z,3.80
2019-03-21T06:27:29.847Z,3.90
2019-03-21T06:29:59.393Z,3.90
2019-03-21T06:32:28.765Z,3.90
2019-03-21T06:34:59.164Z,3.90
2019-03-21T06:37:29.061Z,4.00
2019-03-21T06:39:58.481Z,4.00
2019-03-21T06:42:27.754Z,4.00
2019-03-21T06:44:57.038Z,4.10
2019-03-21T06:47:26.312Z,4.10
2019-03-21T06:49:55.582Z,4.10
2019-03-21T06:52:24.880Z,4.20
2019-03-21T06:54:54.166Z,4.20
2019-03-21T06:57:23.436Z,4.30
2019-03-21T06:59:52.715Z,4.40
2019-03-21T07:02:22.058Z,4.40
2019-03-21T07:04:51.332Z,4.50
2019-03-21T07:07:20.593Z,4.60
2019-03-21T07:09:49.874Z,4.60
2019-03-21T07:12:19.135Z,4.70
2019-03-21T07:14:48.413Z,4.80
2019-03-21T07:17:17.690Z,4.90
2019-03-21T07:19:46.988Z,5.00
2019-03-21T07:22:16.261Z,5.00
2019-03-21T07:24:45.532Z,5.10
2019-03-21T07:27:14.813Z,5.20
2019-03-21T07:29:44.075Z,5.30
2019-03-21T07:32:13.356Z,5.40
2019-03-21T07:34:42.615Z,5.50
2019-03-21T07:37:11.895Z,5.60
2019-03-21T07:39:41.269Z,5.70
2019-03-21T07:42:10.592Z,5.80
2019-03-21T07:44:39.850Z,5.90
2019-03-21T07:47:13.095Z,6.00
2019-03-21T07:49:41.100Z,6.10
2019-03-21T07:52:10.387Z,6.20
2019-03-21T07:54:39.654Z,6.30
2019-03-21T07:57:08.916Z,6.40
2019-03-21T07:59:38.185Z,6.50
2019-03-21T08:02:07.536Z,6.60
2019-03-21T08:04:36.805Z,6.70
2019-03-21T08:07:06.080Z,6.80
2019-03-21T08:09:35.380Z,7.00
2019-03-21T08:12:04.697Z,7.10
2019-03-21T08:14:33.975Z,7.20
2019-03-21T08:17:03.307Z,7.30
2019-03-21T08:19:32.576Z,7.40
2019-03-21T08:22:01.849Z,7.50
2019-03-21T08:24:31.108Z,7.60
2019-03-21T08:27:00.382Z,7.70
2019-03-21T08:29:29.663Z,7.90
2019-03-21T08:31:58.932Z,7.90
2019-03-21T08:34:28.197Z,8.10
2019-03-21T08:36:57.464Z,8.20
2019-03-21T08:39:27.798Z,8.30
2019-03-21T08:41:57.154Z,8.40
2019-03-21T08:44:27.455Z,8.50
2019-03-21T08:46:56.731Z,8.60
2019-03-21T08:49:25.997Z,8.70
2019-03-21T08:51:55.337Z,8.80
2019-03-21T08:54:24.600Z,8.90
2019-03-21T08:56:57.686Z,9.00
2019-03-21T08:59:27.029Z,9.10
2019-03-21T09:01:56.295Z,9.20
2019-03-21T09:04:25.573Z,9.30
2019-03-21T09:06:54.836Z,9.50
2019-03-21T09:09:24.100Z,9.60
2019-03-21T09:11:53.384Z,9.70
2019-03-21T09:14:22.657Z,9.80
2019-03-21T09:16:51.932Z,9.90
2019-03-21T09:19:22.174Z,10.00
2019-03-21T09:21:51.455Z,10.10
2019-03-21T09:24:20.733Z,10.20
2019-03-21T09:26:50.012Z,10.30
2019-03-21T09:29:19.658Z,10.40
2019-03-21T09:31:48.942Z,10.50
2019-03-21T09:34:18.222Z,10.60
2019-03-21T09:36:47.512Z,10.70
2019-03-21T09:39:16.791Z,10.80
2019-03-21T09:41:46.060Z,10.80
2019-03-21T09:44:26.807Z,10.90
2019-03-21T09:46:56.632Z,11.00
2019-03-21T09:49:25.902Z,11.10
2019-03-21T09:51:55.196Z,11.20
2019-03-21T09:54:24.456Z,11.30
2019-03-21T09:56:53.732Z,11.40
2019-03-21T09:59:23.023Z,11.40
2019-03-21T10:01:54.802Z,11.50
2019-03-21T10:04:24.083Z,11.70
2019-03-21T10:06:53.390Z,11.80
2019-03-21T10:09:22.698Z,11.90
2019-03-21T10:11:52.000Z,12.00
2019-03-21T10:14:21.330Z,12.10
2019-03-21T10:16:50.604Z,12.30
2019-03-21T10:19:20.204Z,12.50
2019-03-21T10:21:49.477Z,12.70
2019-03-21T10:24:18.762Z,12.80
2019-03-21T10:26:49.669Z,12.90
2019-03-21T10:29:18.952Z,12.90
2019-03-21T10:31:48.242Z,13.00
2019-03-21T10:34:17.520Z,13.10
2019-03-21T10:36:47.772Z,13.10
2019-03-21T10:39:17.045Z,13.20
2019-03-21T10:41:46.311Z,13.30
2019-03-21T10:44:15.593Z,13.40
2019-03-21T10:46:44.863Z,13.50
2019-03-21T10:49:14.139Z,13.60
2019-03-21T10:51:54.181Z,13.60
2019-03-21T10:54:14.375Z,13.60
2019-03-21T10:56:43.645Z,13.70
2019-03-21T10:59:12.928Z,13.80
2019-03-21T11:01:42.215Z,13.80
2019-03-21T11:04:12.480Z,13.90
2019-03-21T11:06:41.748Z,13.90
2019-03-21T11:09:11.027Z,14.00
2019-03-21T11:11:40.300Z,14.00
2019-03-21T11:14:09.585Z,14.10
2019-03-21T11:16:38.852Z,14.10
2019-03-21T11:19:08.165Z,14.20
2019-03-21T11:21:37.453Z,14.30
2019-03-21T11:24:06.793Z,14.30
2019-03-21T11:26:36.051Z,14.40
2019-03-21T11:29:05.320Z,14.40
2019-03-21T11:31:34.605Z,14.40
2019-03-21T11:34:03.900Z,14.40
2019-03-21T11:36:38.332Z,14.40
2019-03-21T11:39:07.076Z,14.40
2019-03-21T11:41:36.364Z,14.50
2019-03-21T11:44:05.962Z,14.50
2019-03-21T11:46:35.258Z,14.60
2019-03-21T11:49:04.888Z,14.60
2019-03-21T11:51:34.167Z,14.70
2019-03-21T11:54:03.492Z,14.80
2019-03-21T11:56:32.779Z,14.90
2019-03-21T11:59:02.054Z,14.90
2019-03-21T12:01:31.336Z,15.00
2019-03-21T12:04:00.595Z,15.00
2019-03-21T12:06:29.864Z,15.00
2019-03-21T12:08:59.141Z,15.10
2019-03-21T12:11:28.462Z,15.20
2019-03-21T12:13:57.741Z,15.30
2019-03-21T12:16:27.058Z,15.30
2019-03-21T12:18:56.317Z,15.40
2019-03-21T12:21:25.583Z,15.50
2019-03-21T12:23:54.871Z,15.50
2019-03-21T12:26:24.143Z,15.60
2019-03-21T12:28:53.422Z,15.60
2019-03-21T12:31:22.706Z,15.70
2019-03-21T12:33:51.979Z,15.80
2019-03-21T12:36:21.258Z,15.80
2019-03-21T12:38:50.522Z,15.80
2019-03-21T12:41:19.818Z,15.90
2019-03-21T12:43:49.091Z,16.00
2019-03-21T12:46:18.352Z,16.10
2019-03-21T12:48:47.626Z,16.20
2019-03-21T12:51:16.910Z,16.30
2019-03-21T12:53:46.172Z,16.40
2019-03-21T12:56:15.457Z,16.50
2019-03-21T12:58:44.757Z,16.60
2019-03-21T13:01:14.018Z,16.70
2019-03-21T13:03:44.368Z,16.80
2019-03-21T13:06:13.632Z,16.90
2019-03-21T13:08:42.916Z,17.10
2019-03-21T13:11:12.180Z,17.40
2019-03-21T13:13:41.467Z,17.80
2019-03-21T13:16:10.852Z,18.20
2019-03-21T13:18:40.132Z,18.70
2019-03-21T13:21:09.415Z,19.20
2019-03-21T13:23:38.689Z,19.70
2019-03-21T13:26:07.961Z,20.00
2019-03-21T13:28:38.881Z,20.30
2019-03-21T13:31:08.162Z,20.60
2019-03-21T13:33:37.508Z,20.90
2019-03-21T13:36:06.987Z,21.20
2019-03-21T13:38:36.273Z,21.40
2019-03-21T13:41:05.535Z,21.50
2019-03-21T13:43:34.812Z,21.40
2019-03-21T13:46:04.325Z,21.30
2019-03-21T13:48:34.582Z,21.30
2019-03-21T13:51:03.933Z,21.30
2019-03-21T13:53:33.209Z,21.30
2019-03-21T13:56:02.645Z,21.30
2019-03-21T13:58:31.915Z,21.30
2019-03-21T14:01:01.197Z,21.30
2019-03-21T14:03:30.471Z,21.30
2019-03-21T14:05:59.744Z,21.40
2019-03-21T14:08:29.026Z,21.40
2019-03-21T14:10:58.300Z,21.40
2019-03-21T14:13:27.584Z,21.50
2019-03-21T14:15:57.990Z,21.40
2019-03-21T14:18:27.500Z,21.60
2019-03-21T14:20:56.773Z,21.70
2019-03-21T14:23:26.048Z,21.80
2019-03-21T14:25:55.320Z,21.80
2019-03-21T14:28:24.885Z,21.70
2019-03-21T14:30:54.277Z,21.70
2019-03-21T14:33:23.537Z,21.70
2019-03-21T14:35:52.801Z,21.70
2019-03-21T14:38:26.265Z,21.70
2019-03-21T14:40:53.043Z,21.70
2019-03-21T14:43:22.331Z,21.80
2019-03-21T14:45:51.609Z,21.90
2019-03-21T14:48:20.885Z,22.00
2019-03-21T14:50:50.245Z,22.10
2019-03-21T14:53:28.336Z,22.10
2019-03-21T14:55:50.487Z,22.00
2019-03-21T14:58:19.764Z,21.90
2019-03-21T15:00:49.049Z,21.70
2019-03-21T15:03:19.936Z,21.60
2019-03-21T15:05:49.222Z,21.50
2019-03-21T15:08:19.465Z,21.40
2019-03-21T15:10:48.739Z,21.20
2019-03-21T15:13:18.026Z,21.00
2019-03-21T15:15:48.361Z,20.90
2019-03-21T15:18:17.692Z,20.90
2019-03-21T15:20:47.956Z,20.90
2019-03-21T15:23:17.220Z,20.90
2019-03-21T15:25:46.559Z,20.90
2019-03-21T15:28:15.944Z,20.80
2019-03-21T15:30:45.299Z,20.70
2019-03-21T15:33:14.572Z,20.70
2019-03-21T15:35:43.853Z,20.70
2019-03-21T15:38:13.209Z,20.70
2019-03-21T15:40:42.475Z,20.60
2019-03-21T15:43:11.746Z,20.60
2019-03-21T15:45:41.034Z,20.60
2019-03-21T15:48:10.300Z,20.70
2019-03-21T15:50:39.579Z,20.60
2019-03-21T15:53:09.023Z,20.60
2019-03-21T15:55:38.291Z,20.50
2019-03-21T15:58:07.574Z,20.40
2019-03-21T16:00:39.360Z,20.30
2019-03-21T16:03:09.795Z,20.10
2019-03-21T16:05:39.450Z,20.00
2019-03-21T16:08:09.453Z,20.00
2019-03-21T16:10:40.076Z,19.80
2019-03-21T16:13:09.368Z,19.80
2019-03-21T16:15:38.636Z,19.60
2019-03-21T16:18:07.927Z,19.40
2019-03-21T16:20:37.259Z,19.10
2019-03-21T16:23:06.571Z,18.90
2019-03-21T16:25:35.864Z,18.60
2019-03-21T16:28:05.153Z,18.40
2019-03-21T16:30:34.424Z,18.20
2019-03-21T16:33:03.779Z,18.00
2019-03-21T16:35:33.056Z,17.90
2019-03-21T16:38:02.341Z,17.80
2019-03-21T16:40:34.622Z,17.70
2019-03-21T16:43:05.537Z,17.60
2019-03-21T16:45:34.959Z,17.40
2019-03-21T16:48:04.617Z,17.40
2019-03-21T16:50:34.874Z,17.20
2019-03-21T16:53:04.171Z,17.10
2019-03-21T16:55:33.502Z,17.00
2019-03-21T16:58:02.886Z,17.00
2019-03-21T17:00:32.186Z,16.90
2019-03-21T17:03:01.476Z,16.80
2019-03-21T17:05:30.765Z,16.70
2019-03-21T17:08:10.492Z,16.60
2019-03-21T17:10:31.917Z,16.60
2019-03-21T17:13:04.592Z,16.50
2019-03-21T17:15:32.327Z,16.50
2019-03-21T17:18:02.581Z,16.40
2019-03-21T17:20:31.865Z,16.30
2019-03-21T17:23:01.156Z,16.30
2019-03-21T17:25:31.567Z,16.20
2019-03-21T17:28:01.089Z,16.10
2019-03-21T17:30:30.360Z,16.10
2019-03-21T17:32:59.661Z,16.00
2019-03-21T17:35:28.941Z,16.00
2019-03-21T17:37:58.252Z,15.90
2019-03-21T17:40:27.537Z,15.90
2019-03-21T17:42:56.820Z,15.80
2019-03-21T17:45:26.100Z,15.70
2019-03-21T17:47:55.392Z,15.70
2019-03-21T17:50:24.682Z,15.60
2019-03-21T17:52:53.959Z,15.50
2019-03-21T17:55:23.236Z,15.50
2019-03-21T17:57:52.573Z,15.40
2019-03-21T18:00:24.742Z,15.30
2019-03-21T18:02:54.362Z,15.20
2019-03-21T18:05:23.759Z,15.20
2019-03-21T18:07:53.086Z,15.10
2019-03-21T18:10:27.050Z,15.00
2019-03-21T18:12:56.455Z,15.00
2019-03-21T18:15:26.017Z,14.90
2019-03-21T18:17:55.313Z,14.80
2019-03-21T18:20:24.605Z,14.80
2019-03-21T18:22:54.377Z,14.70
2019-03-21T18:25:23.643Z,14.60
2019-03-21T18:27:52.914Z,14.50
2019-03-21T18:30:22.222Z,14.50
2019-03-21T18:32:51.504Z,14.40
2019-03-21T18:35:20.805Z,14.40
2019-03-21T18:37:51.155Z,14.30
2019-03-21T18:40:20.443Z,14.30
2019-03-21T18:42:49.724Z,14.20
2019-03-21T18:45:19.086Z,14.20
2019-03-21T18:47:48.367Z,14.10
2019-03-21T18:50:18.611Z,14.00
2019-03-21T18:52:47.960Z,14.00
2019-03-21T18:55:17.335Z,13.90
2019-03-21T18:57:46.607Z,13.90
2019-03-21T19:00:18.244Z,13.80
2019-03-21T19:02:47.584Z,13.70
2019-03-21T19:05:16.905Z,13.60
2019-03-21T19:07:46.195Z,13.50
2019-03-21T19:10:18.549Z,13.40
2019-03-21T19:12:47.819Z,13.30
2019-03-21T19:15:18.642Z,13.20
2019-03-21T19:17:47.926Z,13.10
2019-03-21T19:20:18.368Z,13.00
2019-03-21T19:22:48.014Z,13.00
2019-03-21T19:25:19.304Z,12.90
2019-03-21T19:27:48.520Z,12.90
2019-03-21T19:30:21.968Z,12.80
2019-03-21T19:32:51.239Z,12.70
2019-03-21T19:35:20.546Z,12.60
2019-03-21T19:37:49.931Z,12.50
2019-03-21T19:40:21.917Z,12.50
2019-03-21T19:42:51.212Z,12.40
2019-03-21T19:45:20.625Z,12.30
2019-03-21T19:47:49.988Z,12.30
2019-03-21T19:50:21.485Z,12.20
2019-03-21T19:52:50.779Z,12.10
2019-03-21T19:55:30.255Z,12.00
2019-03-21T19:57:52.010Z,12.00
2019-03-21T20:00:23.195Z,11.90
2019-03-21T20:02:53.547Z,11.80
2019-03-21T20:05:22.836Z,11.70
2019-03-21T20:07:52.128Z,11.70
2019-03-21T20:10:22.387Z,11.60
2019-03-21T20:12:53.307Z,11.60
2019-03-21T20:15:22.608Z,11.50
2019-03-21T20:17:51.904Z,11.40
2019-03-21T20:20:21.253Z,11.40
2019-03-21T20:22:50.554Z,11.30
2019-03-21T20:25:19.828Z,11.20
2019-03-21T20:27:49.117Z,11.20
2019-03-21T20:30:20.617Z,11.10
2019-03-21T20:32:49.990Z,11.00
2019-03-21T20:35:19.334Z,10.90
2019-03-21T20:37:48.732Z,10.90
2019-03-21T20:40:19.364Z,10.80
2019-03-21T20:42:49.637Z,10.70
2019-03-21T20:45:20.357Z,10.70
2019-03-21T20:47:49.646Z,10.60
2019-03-21T20:50:18.991Z,10.50
2019-03-21T20:52:48.282Z,10.50
2019-03-21T20:55:17.624Z,10.40
2019-03-21T20:57:46.920Z,10.30
2019-03-21T21:00:23.744Z,10.30
2019-03-21T21:02:54.641Z,10.20
2019-03-21T21:05:23.923Z,10.20
2019-03-21T21:07:53.291Z,10.10
2019-03-21T21:10:22.637Z,10.10
2019-03-21T21:12:51.927Z,10.00
2019-03-21T21:15:21.214Z,9.90
2019-03-21T21:17:50.507Z,9.90
2019-03-21T21:20:19.838Z,9.80
2019-03-21T21:22:49.124Z,9.80
2019-03-21T21:25:18.430Z,9.70
2019-03-21T21:27:49.625Z,9.70
2019-03-21T21:30:20.147Z,9.60
2019-03-21T21:32:49.419Z,9.60
2019-03-21T21:35:18.705Z,9.50
2019-03-21T21:37:48.041Z,9.40
2019-03-21T21:40:18.058Z,9.40
2019-03-21T21:42:47.400Z,9.40
2019-03-21T21:45:18.324Z,9.30
2019-03-21T21:47:47.583Z,9.30
2019-03-21T21:50:17.610Z,9.20
2019-03-21T21:52:46.881Z,9.20
2019-03-21T21:55:17.238Z,9.20
2019-03-21T21:57:46.507Z,9.10
2019-03-21T22:00:18.164Z,9.10
2019-03-21T22:02:47.441Z,9.00
2019-03-21T22:05:16.707Z,9.00
2019-03-21T22:07:45.982Z,9.00
2019-03-21T22:10:15.600Z,8.90
2019-03-21T22:12:45.048Z,8.90
2019-03-21T22:15:15.764Z,8.80
2019-03-21T22:17:45.044Z,8.80
2019-03-21T22:20:17.431Z,8.70
2019-03-21T22:22:46.700Z,8.70
2019-03-21T22:25:15.982Z,8.60
2019-03-21T22:27:45.259Z,8.60
2019-03-21T22:30:20.976Z,8.60
2019-03-21T22:32:50.250Z,8.50
2019-03-21T22:35:19.529Z,8.50
2019-03-21T22:37:49.770Z,8.40
2019-03-21T22:40:20.236Z,8.40
2019-03-21T22:42:49.507Z,8.30
2019-03-21T22:45:18.852Z,8.30
2019-03-21T22:51:48.358Z,8.20
2019-03-21T22:54:17.701Z,8.20
2019-03-21T22:56:46.985Z,8.20
2019-03-21T22:59:16.256Z,8.10
2019-03-21T23:01:45.606Z,8.10
2019-03-21T23:04:14.944Z,8.10
2019-03-21T23:06:44.219Z,8.00
2019-03-21T23:09:14.467Z,8.00
2019-03-21T23:11:43.748Z,8.00
2019-03-21T23:14:13.013Z,8.00
2019-03-21T23:16:42.284Z,7.90
2019-03-21T23:19:11.557Z,7.90
2019-03-21T23:21:40.840Z,7.90
2019-03-21T23:24:10.110Z,7.80
2019-03-21T23:26:39.389Z,7.90
2019-03-21T23:29:08.661Z,7.80
2019-03-21T23:31:38.201Z,7.80
2019-03-21T23:34:07.465Z,7.70
2019-03-21T23:36:36.748Z,7.70
2019-03-21T23:39:06.491Z,7.60
2019-03-21T23:41:35.831Z,7.60
2019-03-21T23:44:05.129Z,7.50
2019-03-21T23:46:34.406Z,7.50
2019-03-21T23:49:03.673Z,7.50
2019-03-21T23:51:32.959Z,7.50
2019-03-21T23:54:02.231Z,7.40
2019-03-21T23:56:31.580Z,7.40
2019-03-21T23:59:00.859Z,7.30
